createdAt,value
2023-05-15T00:00:43.935Z,100413.93
2023-05-15T00:03:11.827Z,100415.45
2023-05-15T00:05:39.095Z,100416.52
2023-05-15T00:08:11.179Z,100417.84
2023-05-15T00:10:39.359Z,100410.63
2023-05-15T00:13:08.081Z,100411.48
2023-05-15T00:15:34.920Z,100408.79
2023-05-15T00:18:07.042Z,100409.90
2023-05-15T00:20:34.474Z,100405.28
2023-05-15T00:23:01.876Z,100401.25
2023-05-15T00:25:28.977Z,100403.30
2023-05-15T00:27:55.742Z,100405.45
2023-05-15T00:30:22.545Z,100403.55
2023-05-15T00:32:54.632Z,100404.39
2023-05-15T00:35:21.507Z,100402.48
2023-05-15T00:37:48.326Z,100400.80
2023-05-15T00:40:19.224Z,100400.14
2023-05-15T00:42:46.346Z,100399.59
2023-05-15T00:45:13.162Z,100399.60
2023-05-15T00:47:40.589Z,100400.33
2023-05-15T00:50:09.780Z,100403.10
2023-05-15T00:52:36.945Z,100407.96
2023-05-15T00:55:06.372Z,100411.25
2023-05-15T00:57:33.484Z,100407.27
2023-05-15T01:00:00.377Z,100404.42
2023-05-15T01:02:27.381Z,100403.48
2023-05-15T01:04:54.420Z,100402.40
2023-05-15T01:07:22.108Z,100398.90
2023-05-15T01:09:49.123Z,100400.48
2023-05-15T01:12:16.368Z,100396.59
2023-05-15T01:14:43.129Z,100401.18
2023-05-15T01:17:09.973Z,100398.88
2023-05-15T01:19:38.203Z,100400.79
2023-05-15T01:22:16.721Z,100398.52
2023-05-15T01:24:59.257Z,100396.86
2023-05-15T01:27:39.457Z,100399.73
2023-05-15T01:30:18.115Z,100396.26
2023-05-15T01:33:23.457Z,100397.70
2023-05-15T01:35:55.561Z,100392.17
2023-05-15T01:38:55.626Z,100395.02
2023-05-15T01:41:45.380Z,100391.50
2023-05-15T01:44:19.694Z,100390.91
2023-05-15T01:46:49.424Z,100392.70
2023-05-15T01:49:18.380Z,100392.94
2023-05-15T01:51:47.511Z,100389.29
2023-05-15T01:54:14.556Z,100386.02
2023-05-15T01:56:42.781Z,100387.03
2023-05-15T01:59:09.815Z,100388.41
2023-05-15T02:01:36.782Z,100390.85
2023-05-15T02:04:08.893Z,100389.92
2023-05-15T02:06:36.043Z,100387.40
2023-05-15T02:09:04.466Z,100383.63
2023-05-15T02:11:36.782Z,100383.31
2023-05-15T02:14:04.449Z,100384.96
2023-05-15T02:16:32.104Z,100385.02
2023-05-15T02:18:59.231Z,100386.03
2023-05-15T02:21:26.155Z,100383.64
2023-05-15T02:23:53.357Z,100387.18
2023-05-15T02:26:51.877Z,100385.30
2023-05-15T02:29:23.150Z,100385.21
2023-05-15T02:32:12.506Z,100385.10
2023-05-15T02:34:49.670Z,100384.67
2023-05-15T02:37:17.776Z,100380.80
2023-05-15T02:39:45.608Z,100381.37
2023-05-15T02:42:13.690Z,100377.67
2023-05-15T02:44:41.936Z,100376.29
2023-05-15T02:47:09.775Z,100373.79
2023-05-15T02:49:37.203Z,100375.62
2023-05-15T02:52:04.991Z,100369.97
2023-05-15T02:54:32.234Z,100373.27
2023-05-15T02:56:59.510Z,100373.94
2023-05-15T02:59:26.554Z,100375.09
2023-05-15T03:01:53.497Z,100379.34
2023-05-15T03:04:20.424Z,100381.70
2023-05-15T03:06:47.456Z,100386.89
2023-05-15T03:09:14.346Z,100388.65
2023-05-15T03:11:41.492Z,100386.76
2023-05-15T03:14:08.413Z,100384.14
2023-05-15T03:16:36.671Z,100386.73
2023-05-15T03:19:04.044Z,100387.71
2023-05-15T03:21:31.284Z,100387.20
2023-05-15T03:23:58.087Z,100384.16
2023-05-15T03:26:25.224Z,100383.20
2023-05-15T03:28:53.027Z,100384.35
2023-05-15T03:31:19.912Z,100381.80
2023-05-15T03:33:49.454Z,100381.45
2023-05-15T03:36:16.620Z,100385.69
2023-05-15T03:38:44.045Z,100391.77
2023-05-15T03:41:11.008Z,100394.07
2023-05-15T03:43:37.938Z,100396.12
2023-05-15T03:46:11.138Z,100395.86
2023-05-15T03:48:40.862Z,100395.23
2023-05-15T03:51:07.673Z,100401.09
2023-05-15T03:53:34.426Z,100400.11
2023-05-15T03:56:01.314Z,100405.20
2023-05-15T03:58:28.227Z,100401.76
2023-05-15T04:00:55.273Z,100404.91
2023-05-15T04:03:22.201Z,100404.54
2023-05-15T04:05:49.574Z,100405.44
2023-05-15T04:08:21.701Z,100410.31
2023-05-15T04:10:48.577Z,100401.94
2023-05-15T04:13:15.585Z,100405.45
2023-05-15T04:15:43.040Z,100405.38
2023-05-15T04:18:10.914Z,100403.48
2023-05-15T04:20:38.038Z,100406.53
2023-05-15T04:23:05.248Z,100405.19
2023-05-15T04:25:32.090Z,100407.06
2023-05-15T04:27:59.106Z,100411.38
2023-05-15T04:30:26.371Z,100411.70
2023-05-15T04:32:53.402Z,100404.58
2023-05-15T04:35:20.394Z,100402.56
2023-05-15T04:37:47.576Z,100405.15
2023-05-15T04:40:15.744Z,100408.20
2023-05-15T04:42:43.104Z,100409.70
2023-05-15T04:45:10.641Z,100407.91
2023-05-15T04:47:38.080Z,100405.30
2023-05-15T04:50:06.110Z,100405.19
2023-05-15T04:52:33.324Z,100408.38
2023-05-15T04:55:00.224Z,100406.92
2023-05-15T04:57:27.113Z,100405.66
2023-05-15T04:59:54.132Z,100402.06
2023-05-15T05:02:24.224Z,100402.87
2023-05-15T05:04:51.105Z,100405.85
2023-05-15T05:07:18.056Z,100407.13
2023-05-15T05:09:45.002Z,100409.14
2023-05-15T05:12:11.790Z,100405.52
2023-05-15T05:14:41.649Z,100407.98
2023-05-15T05:17:09.112Z,100407.52
2023-05-15T05:19:37.206Z,100407.88
2023-05-15T05:22:04.772Z,100409.34
2023-05-15T05:24:32.000Z,100408.16
2023-05-15T05:26:59.753Z,100408.44
2023-05-15T05:29:26.594Z,100408.05
2023-05-15T05:31:53.730Z,100410.61
2023-05-15T05:34:20.891Z,100413.08
2023-05-15T05:36:48.311Z,100415.33
2023-05-15T05:39:18.490Z,100414.92
2023-05-15T05:41:45.655Z,100419.19
2023-05-15T05:44:14.133Z,100416.05
2023-05-15T05:46:41.066Z,100420.39
2023-05-15T05:49:08.207Z,100420.27
2023-05-15T05:51:36.574Z,100418.64
2023-05-15T05:54:04.965Z,100418.66
2023-05-15T05:56:34.571Z,100416.29
2023-05-15T05:59:01.860Z,100412.16
2023-05-15T06:01:29.110Z,100411.00
2023-05-15T06:03:56.925Z,100411.70
2023-05-15T06:06:23.984Z,100415.99
2023-05-15T06:08:51.759Z,100415.02
2023-05-15T06:11:19.510Z,100411.96
2023-05-15T06:13:46.526Z,100411.49
2023-05-15T06:16:13.479Z,100410.69
2023-05-15T06:18:40.480Z,100409.02
2023-05-15T06:21:08.531Z,100409.61
2023-05-15T06:23:36.825Z,100406.72
2023-05-15T06:26:03.920Z,100407.86
2023-05-15T06:28:31.035Z,100404.23
2023-05-15T06:30:58.218Z,100406.42
2023-05-15T06:33:27.643Z,100403.58
2023-05-15T06:35:55.100Z,100403.13
2023-05-15T06:38:22.255Z,100399.91
2023-05-15T06:40:51.804Z,100393.17
2023-05-15T06:43:21.490Z,100392.56
2023-05-15T06:45:49.071Z,100390.50
2023-05-15T06:48:15.928Z,100392.19
2023-05-15T06:50:42.913Z,100388.64
2023-05-15T06:53:10.891Z,100387.75
2023-05-15T07:03:46.900Z,100385.14
2023-05-15T07:06:14.047Z,100379.27
2023-05-15T07:08:41.019Z,100381.46
2023-05-15T07:11:07.939Z,100381.89
2023-05-15T07:13:34.926Z,100382.30
2023-05-15T07:16:02.757Z,100382.65
2023-05-15T07:18:30.174Z,100382.30
2023-05-15T07:20:57.291Z,100381.74
2023-05-15T07:23:24.160Z,100377.05
2023-05-15T07:25:54.036Z,100374.69
2023-05-15T07:28:22.392Z,100373.99
2023-05-15T07:30:50.022Z,100375.35
2023-05-15T07:33:21.925Z,100370.14
2023-05-15T07:35:50.286Z,100368.83
2023-05-15T07:38:17.820Z,100364.91
2023-05-15T07:40:44.847Z,100361.77
2023-05-15T07:43:11.889Z,100364.66
2023-05-15T07:45:38.784Z,100366.31
2023-05-15T07:48:16.527Z,100365.41
2023-05-15T07:50:45.477Z,100363.07
2023-05-15T07:53:13.472Z,100358.09
2023-05-15T07:55:41.004Z,100355.28
2023-05-15T07:58:07.811Z,100355.71
2023-05-15T08:00:35.914Z,100351.77
2023-05-15T08:03:02.874Z,100353.20
2023-05-15T08:05:32.625Z,100351.59
2023-05-15T08:08:00.307Z,100349.62
2023-05-15T08:10:27.122Z,100346.21
2023-05-15T08:12:53.999Z,100346.92
2023-05-15T08:15:21.010Z,100352.48
2023-05-15T08:17:47.857Z,100348.19
2023-05-15T08:20:16.164Z,100351.67
2023-05-15T08:22:43.014Z,100351.17
2023-05-15T08:25:09.981Z,100351.45
2023-05-15T08:27:39.303Z,100348.39
2023-05-15T08:30:08.805Z,100345.89
2023-05-15T08:32:35.888Z,100344.30
2023-05-15T08:35:02.832Z,100341.66
2023-05-15T08:37:31.371Z,100335.05
2023-05-15T08:39:58.136Z,100335.52
2023-05-15T08:42:31.343Z,100331.62
2023-05-15T08:45:00.547Z,100330.73
2023-05-15T08:47:28.519Z,100332.87
2023-05-15T08:50:13.676Z,100328.97
2023-05-15T08:52:47.143Z,100322.95
2023-05-15T08:55:14.686Z,100318.05
2023-05-15T08:57:42.047Z,100315.27
2023-05-15T09:00:11.459Z,100309.88
2023-05-15T09:02:39.167Z,100305.17
2023-05-15T09:05:06.727Z,100303.27
2023-05-15T09:07:33.758Z,100300.66
2023-05-15T09:10:01.783Z,100303.35
2023-05-15T09:12:28.693Z,100297.16
2023-05-15T09:15:17.148Z,100289.91
2023-05-15T09:17:44.568Z,100287.42
2023-05-15T09:20:34.365Z,100284.09
2023-05-15T09:23:03.339Z,100279.96
2023-05-15T09:25:41.131Z,100280.56
2023-05-15T09:28:24.431Z,100278.98
2023-05-15T09:30:56.684Z,100276.70
2023-05-15T09:33:36.688Z,100273.54
2023-05-15T09:36:04.846Z,100270.61
2023-05-15T09:38:41.589Z,100270.14
2023-05-15T09:41:08.599Z,100268.98
2023-05-15T09:43:39.280Z,100263.73
2023-05-15T09:46:12.482Z,100259.30
2023-05-15T09:48:39.735Z,100258.02
2023-05-15T09:51:17.492Z,100257.30
2023-05-15T09:53:53.733Z,100254.61
2023-05-15T09:56:21.459Z,100252.23
2023-05-15T09:58:54.949Z,100249.88
2023-05-15T10:01:25.330Z,100249.39
2023-05-15T10:04:00.010Z,100254.39
2023-05-15T10:06:26.986Z,100257.33
2023-05-15T10:08:54.185Z,100255.36
2023-05-15T10:11:22.153Z,100250.46
2023-05-15T10:13:49.316Z,100249.94
2023-05-15T10:16:16.183Z,100252.11
2023-05-15T10:18:45.312Z,100249.58
2023-05-15T10:21:12.207Z,100248.50
2023-05-15T10:23:40.543Z,100240.52
2023-05-15T10:26:15.914Z,100239.56
2023-05-15T10:28:44.806Z,100236.14
2023-05-15T10:31:11.913Z,100234.17
2023-05-15T10:33:38.760Z,100236.01
2023-05-15T10:36:05.872Z,100232.00
2023-05-15T10:38:33.181Z,100231.70
2023-05-15T10:41:16.143Z,100227.50
2023-05-15T10:43:44.495Z,100223.67
2023-05-15T10:46:11.307Z,100224.42
2023-05-15T10:48:38.366Z,100222.59
2023-05-15T10:51:05.300Z,100221.85
2023-05-15T10:53:32.843Z,100223.90
2023-05-15T10:55:59.733Z,100225.90
2023-05-15T10:58:26.475Z,100227.64
2023-05-15T11:00:53.352Z,100227.69
2023-05-15T11:03:48.593Z,100228.08
2023-05-15T11:06:16.610Z,100230.46
2023-05-15T11:08:44.630Z,100228.66
2023-05-15T11:11:55.257Z,100228.21
2023-05-15T11:14:28.322Z,100230.45
2023-05-15T11:16:56.895Z,100237.54
2023-05-15T11:19:53.884Z,100242.01
2023-05-15T11:22:30.836Z,100243.02
2023-05-15T11:24:59.449Z,100241.77
2023-05-15T11:27:28.509Z,100242.05
2023-05-15T11:30:07.974Z,100248.23
2023-05-15T11:32:47.412Z,100246.16
2023-05-15T11:35:32.153Z,100250.33
2023-05-15T11:38:03.389Z,100255.53
2023-05-15T11:40:31.994Z,100253.95
2023-05-15T11:43:21.275Z,100259.94
2023-05-15T11:45:52.130Z,100261.44
2023-05-15T11:48:19.291Z,100262.79
2023-05-15T11:50:46.513Z,100264.59
2023-05-15T11:53:14.156Z,100259.28
2023-05-15T11:55:42.772Z,100259.50
2023-05-15T11:58:14.602Z,100255.70
2023-05-15T12:00:42.388Z,100255.00
2023-05-15T12:03:17.185Z,100261.35
2023-05-15T12:05:54.057Z,100263.30
2023-05-15T12:08:25.756Z,100262.37
2023-05-15T12:10:53.281Z,100260.09
2023-05-15T12:13:20.664Z,100261.36
2023-05-15T12:15:47.620Z,100263.77
2023-05-15T12:18:14.659Z,100261.46
2023-05-15T12:20:46.184Z,100258.23
2023-05-15T12:23:16.928Z,100255.41
2023-05-15T12:25:45.107Z,100254.11
2023-05-15T12:28:12.139Z,100252.58
2023-05-15T12:30:39.317Z,100250.78
2023-05-15T12:33:07.088Z,100250.17
2023-05-15T12:35:36.875Z,100248.04
2023-05-15T12:38:04.745Z,100250.19
2023-05-15T12:40:35.375Z,100248.74
2023-05-15T12:43:06.518Z,100246.69
2023-05-15T12:45:34.779Z,100239.51
2023-05-15T12:48:03.202Z,100243.81
2023-05-15T12:50:32.293Z,100238.20
2023-05-15T12:53:05.758Z,100234.70
2023-05-15T12:55:34.340Z,100232.04
2023-05-15T12:58:08.732Z,100230.23
2023-05-15T13:00:36.726Z,100230.13
2023-05-15T13:03:06.112Z,100228.14
2023-05-15T13:05:34.415Z,100225.39
2023-05-15T13:08:05.800Z,100228.34
2023-05-15T13:10:33.805Z,100223.90
2023-05-15T13:13:00.844Z,100223.55
2023-05-15T13:15:30.155Z,100221.65
2023-05-15T13:18:01.328Z,100213.16
2023-05-15T13:20:29.598Z,100211.80
2023-05-15T13:22:56.400Z,100209.53
2023-05-15T13:25:23.150Z,100212.20
2023-05-15T13:27:50.375Z,100212.21
2023-05-15T13:30:17.792Z,100208.39
2023-05-15T13:32:45.272Z,100204.98
2023-05-15T13:35:12.379Z,100198.41
2023-05-15T13:37:39.411Z,100200.45
2023-05-15T13:40:10.239Z,100200.48
2023-05-15T13:42:38.028Z,100200.27
2023-05-15T13:45:05.365Z,100201.13
2023-05-15T13:47:32.575Z,100199.77
2023-05-15T13:50:00.342Z,100203.60
2023-05-15T13:52:27.351Z,100200.25
2023-05-15T13:54:55.512Z,100198.33
2023-05-15T13:57:22.601Z,100195.08
2023-05-15T13:59:49.659Z,100194.59
2023-05-15T14:02:16.498Z,100195.82
2023-05-15T14:04:43.412Z,100197.10
2023-05-15T14:07:10.757Z,100202.32
2023-05-15T14:09:38.148Z,100203.38
2023-05-15T14:12:05.016Z,100206.23
2023-05-15T14:14:32.113Z,100203.84
2023-05-15T14:16:59.032Z,100200.33
2023-05-15T14:19:26.423Z,100198.08
2023-05-15T14:21:53.608Z,100193.36
2023-05-15T14:24:20.441Z,100194.88
2023-05-15T14:26:48.000Z,100203.27
2023-05-15T14:29:14.817Z,100204.90
2023-05-15T14:31:42.733Z,100204.05
2023-05-15T14:34:09.666Z,100200.39
2023-05-15T14:36:36.808Z,100193.85
2023-05-15T14:39:03.729Z,100192.90
2023-05-15T14:41:31.239Z,100193.71
2023-05-15T14:43:58.327Z,100195.55
2023-05-15T14:46:25.771Z,100198.06
2023-05-15T14:48:55.421Z,100194.48
2023-05-15T14:51:27.421Z,100188.27
2023-05-15T14:53:54.394Z,100187.06
2023-05-15T14:56:21.897Z,100189.25
2023-05-15T14:58:50.462Z,100192.31
2023-05-15T15:01:17.370Z,100189.63
2023-05-15T15:03:44.883Z,100188.18
2023-05-15T15:06:12.576Z,100189.23
2023-05-15T15:08:39.338Z,100194.23
2023-05-15T15:11:07.605Z,100194.42
2023-05-15T15:13:35.000Z,100194.65
2023-05-15T15:16:02.153Z,100195.61
2023-05-15T15:18:29.296Z,100197.37
2023-05-15T15:20:56.390Z,100199.52
2023-05-15T15:23:23.356Z,100207.06
2023-05-15T15:25:50.365Z,100206.16
2023-05-15T15:28:22.473Z,100207.31
2023-05-15T15:30:49.347Z,100209.35
2023-05-15T15:33:16.280Z,100212.19
2023-05-15T15:35:43.604Z,100213.48
2023-05-15T15:38:13.131Z,100216.85
2023-05-15T15:40:40.360Z,100211.98
2023-05-15T15:43:07.627Z,100209.55
2023-05-15T15:45:34.605Z,100206.08
2023-05-15T15:48:01.639Z,100205.37
2023-05-15T15:50:28.940Z,100207.77
2023-05-15T15:52:55.763Z,100204.07
2023-05-15T15:55:22.714Z,100201.72
2023-05-15T15:57:49.804Z,100204.30
2023-05-15T16:00:17.380Z,100200.52
2023-05-15T16:02:45.062Z,100205.29
2023-05-15T16:05:12.701Z,100206.94
2023-05-15T16:07:39.944Z,100207.44
2023-05-15T16:10:12.822Z,100206.73
2023-05-15T16:12:41.917Z,100207.10
2023-05-15T16:15:21.590Z,100209.34
2023-05-15T16:17:52.861Z,100212.30
2023-05-15T16:20:21.157Z,100210.98
2023-05-15T16:22:48.096Z,100212.42
2023-05-15T16:25:14.987Z,100215.15
2023-05-15T16:27:42.263Z,100213.88
2023-05-15T16:30:11.116Z,100212.28
2023-05-15T16:32:39.004Z,100208.06
2023-05-15T16:35:07.123Z,100210.38
2023-05-15T16:37:35.223Z,100219.55
2023-05-15T16:40:03.433Z,100219.67
2023-05-15T16:42:35.464Z,100218.20
2023-05-15T16:45:03.442Z,100219.05
2023-05-15T16:47:31.188Z,100224.67
2023-05-15T16:49:58.854Z,100223.74
2023-05-15T16:52:26.131Z,100229.00
2023-05-15T16:54:54.218Z,100229.14
2023-05-15T16:57:21.281Z,100233.03
2023-05-15T16:59:49.251Z,100233.58
2023-05-15T17:02:16.906Z,100237.72
2023-05-15T17:04:43.762Z,100236.73
2023-05-15T17:07:11.255Z,100239.26
2023-05-15T17:09:40.291Z,100240.73
2023-05-15T17:12:07.606Z,100236.21
2023-05-15T17:14:35.410Z,100234.73
2023-05-15T17:17:02.420Z,100232.02
2023-05-15T17:19:34.075Z,100236.52
2023-05-15T17:22:00.918Z,100244.88
2023-05-15T17:24:38.538Z,100247.86
2023-05-15T17:27:15.772Z,100249.47
2023-05-15T17:29:42.684Z,100254.33
2023-05-15T17:32:09.774Z,100255.27
2023-05-15T17:34:37.206Z,100259.85
2023-05-15T17:37:06.333Z,100262.38
2023-05-15T17:39:33.507Z,100263.33
2023-05-15T17:42:02.852Z,100262.36
2023-05-15T17:44:36.261Z,100263.45
2023-05-15T17:47:03.348Z,100259.95
2023-05-15T17:49:30.695Z,100260.57
2023-05-15T17:51:58.362Z,100264.00
2023-05-15T17:54:25.716Z,100264.70
2023-05-15T17:56:52.933Z,100265.04
2023-05-15T17:59:19.814Z,100270.30
2023-05-15T18:01:46.746Z,100265.93
2023-05-15T18:04:14.213Z,100269.06
2023-05-15T18:06:41.582Z,100268.54
2023-05-15T18:09:09.242Z,100270.95
2023-05-15T18:11:36.765Z,100273.30
2023-05-15T18:14:03.736Z,100270.13
2023-05-15T18:16:32.273Z,100272.08
2023-05-15T18:19:04.557Z,100274.75
2023-05-15T18:21:32.284Z,100274.29
2023-05-15T18:23:59.290Z,100279.70
2023-05-15T18:26:28.614Z,100286.42
2023-05-15T18:28:55.923Z,100286.67
2023-05-15T18:31:22.833Z,100290.75
2023-05-15T18:33:49.789Z,100292.60
2023-05-15T18:36:16.577Z,100294.42
2023-05-15T18:38:49.261Z,100289.15
2023-05-15T18:41:16.335Z,100293.89
2023-05-15T18:43:43.260Z,100291.73
2023-05-15T18:46:10.328Z,100289.58
2023-05-15T18:48:37.324Z,100287.48
2023-05-15T18:51:04.218Z,100290.26
2023-05-15T18:53:31.087Z,100292.96
2023-05-15T18:55:57.940Z,100293.95
2023-05-15T18:58:25.009Z,100291.58
2023-05-15T19:00:52.088Z,100296.82
2023-05-15T19:03:20.936Z,100297.56
2023-05-15T19:05:48.423Z,100298.11
2023-05-15T19:08:15.329Z,100298.83
2023-05-15T19:10:47.989Z,100296.95
2023-05-15T19:13:14.913Z,100298.19
2023-05-15T19:15:50.183Z,100304.88
2023-05-15T19:18:18.125Z,100306.21
2023-05-15T19:20:49.445Z,100309.19
2023-05-15T19:23:16.752Z,100309.28
2023-05-15T19:25:44.374Z,100314.36
2023-05-15T19:28:13.015Z,100315.45
2023-05-15T19:30:40.888Z,100313.21
2023-05-15T19:33:08.419Z,100309.32
2023-05-15T19:35:37.486Z,100312.13
2023-05-15T19:38:05.056Z,100313.91
2023-05-15T19:40:32.195Z,100312.80
2023-05-15T19:42:59.001Z,100314.57
2023-05-15T19:45:25.884Z,100315.45
2023-05-15T19:47:52.754Z,100315.77
2023-05-15T19:50:19.782Z,100314.59
2023-05-15T19:52:47.027Z,100315.48
2023-05-15T19:55:13.939Z,100314.83
2023-05-15T19:57:42.109Z,100315.45
2023-05-15T20:00:10.020Z,100317.58
2023-05-15T20:02:38.101Z,100319.32
2023-05-15T20:05:05.532Z,100314.42
2023-05-15T20:07:32.483Z,100316.02
2023-05-15T20:09:59.286Z,100319.65
2023-05-15T20:12:26.189Z,100322.20
2023-05-15T20:14:53.068Z,100321.20
2023-05-15T20:17:20.210Z,100322.29
2023-05-15T20:19:48.934Z,100323.35
2023-05-15T20:22:16.853Z,100322.64
2023-05-15T20:24:45.397Z,100320.25
2023-05-15T20:27:13.396Z,100321.59
2023-05-15T20:29:40.833Z,100322.45
2023-05-15T20:32:08.051Z,100318.10
2023-05-15T20:34:36.585Z,100320.63
2023-05-15T20:37:03.978Z,100320.38
2023-05-15T20:39:31.392Z,100323.14
2023-05-15T20:41:58.243Z,100321.84
2023-05-15T20:44:25.138Z,100322.70
2023-05-15T20:46:51.989Z,100321.61
2023-05-15T20:49:18.926Z,100319.91
2023-05-15T20:51:48.124Z,100321.80
2023-05-15T20:54:15.745Z,100320.93
2023-05-15T20:56:42.821Z,100322.27
2023-05-15T20:59:10.439Z,100320.84
2023-05-15T21:01:37.541Z,100321.14
2023-05-15T21:04:04.775Z,100320.46
2023-05-15T21:06:33.374Z,100321.34
2023-05-15T21:09:00.160Z,100320.48
2023-05-15T21:11:27.835Z,100320.69
2023-05-15T21:13:55.016Z,100322.15
2023-05-15T21:16:22.470Z,100319.15
2023-05-15T21:18:49.805Z,100319.40
2023-05-15T21:21:21.916Z,100316.14
2023-05-15T21:23:48.749Z,100317.52
2023-05-15T21:26:16.195Z,100317.48
2023-05-15T21:28:43.146Z,100314.51
2023-05-15T21:31:11.017Z,100310.75
2023-05-15T21:33:38.149Z,100312.56
2023-05-15T21:36:05.312Z,100310.23
2023-05-15T21:38:32.376Z,100310.65
2023-05-15T21:40:59.364Z,100310.05
2023-05-15T21:43:26.285Z,100305.06
2023-05-15T21:45:56.367Z,100310.73
2023-05-15T21:48:23.388Z,100310.78
2023-05-15T21:50:51.417Z,100311.72
2023-05-15T21:53:24.172Z,100311.77
2023-05-15T21:56:01.323Z,100318.20
2023-05-15T21:58:28.360Z,100321.48
2023-05-15T22:00:55.387Z,100332.05
2023-05-15T22:03:22.732Z,100331.30
2023-05-15T22:05:51.060Z,100330.33
2023-05-15T22:08:18.643Z,100323.65
2023-05-15T22:10:45.801Z,100323.10
2023-05-15T22:13:12.775Z,100329.33
2023-05-15T22:15:39.993Z,100329.52
2023-05-15T22:18:07.642Z,100325.54
2023-05-15T22:20:35.700Z,100325.57
2023-05-15T22:23:02.555Z,100329.70
2023-05-15T22:25:29.632Z,100324.65
2023-05-15T22:27:56.427Z,100327.19
2023-05-15T22:30:23.234Z,100328.17
2023-05-15T22:32:56.049Z,100326.77
2023-05-15T22:35:23.043Z,100326.42
2023-05-15T22:37:50.027Z,100327.50
2023-05-15T22:40:17.004Z,100324.05
2023-05-15T22:42:43.959Z,100321.19
2023-05-15T22:45:11.481Z,100325.05
2023-05-15T22:47:43.830Z,100322.70
2023-05-15T22:50:10.915Z,100324.27
2023-05-15T22:52:38.521Z,100324.54
2023-05-15T22:55:06.812Z,100323.60
2023-05-15T22:57:34.156Z,100320.86
2023-05-15T23:00:01.128Z,100322.08
2023-05-15T23:02:28.236Z,100320.66
2023-05-15T23:05:00.585Z,100317.91
2023-05-15T23:07:27.607Z,100319.91
2023-05-15T23:09:59.564Z,100317.05
2023-05-15T23:12:26.403Z,100321.91
2023-05-15T23:14:53.382Z,100313.08
2023-05-15T23:17:24.082Z,100312.09
2023-05-15T23:19:57.124Z,100317.58
2023-05-15T23:22:24.152Z,100316.25
2023-05-15T23:24:50.986Z,100317.06
2023-05-15T23:27:18.075Z,100313.02
2023-05-15T23:29:45.883Z,100315.91
2023-05-15T23:32:12.973Z,100315.04
2023-05-15T23:34:39.897Z,100314.30
2023-05-15T23:37:07.167Z,100313.08
2023-05-15T23:39:35.450Z,100310.59
2023-05-15T23:42:02.815Z,100311.80
2023-05-15T23:44:34.932Z,100308.46
2023-05-15T23:47:02.053Z,100302.75
2023-05-15T23:49:29.131Z,100305.03
2023-05-15T23:51:56.133Z,100302.58
2023-05-15T23:54:22.926Z,100303.86
2023-05-15T23:56:49.885Z,100304.11
2023-05-15T23:59:17.039Z,100305.98
